sensor_id;sensor_type;location;lat;lon;timestamp;P1;durP1;ratioP1;P2;durP2;ratioP2
15931;SDS011;8065;49.520;11.284;2023-12-20T00:02:23;5.57;;;5.07;;
15931;SDS011;8065;49.520;11.284;2023-12-20T00:04:51;7.57;;;5.57;;
15931;SDS011;8065;49.520;11.284;2023-12-20T00:07:19;7.43;;;4.87;;
15931;SDS011;8065;49.520;11.284;2023-12-20T00:09:47;5.47;;;4.87;;
15931;SDS011;8065;49.520;11.284;2023-12-20T00:12:18;5.70;;;5.10;;
15931;SDS011;8065;49.520;11.284;2023-12-20T00:14:46;4.97;;;4.47;;
15931;SDS011;8065;49.520;11.284;2023-12-20T00:17:15;6.37;;;4.90;;
15931;SDS011;8065;49.520;11.284;2023-12-20T00:19:43;7.43;;;4.93;;
15931;SDS011;8065;49.520;11.284;2023-12-20T00:22:11;6.37;;;5.33;;
15931;SDS011;8065;49.520;11.284;2023-12-20T00:24:39;5.87;;;4.93;;
15931;SDS011;8065;49.520;11.284;2023-12-20T00:27:08;5.50;;;4.90;;
15931;SDS011;8065;49.520;11.284;2023-12-20T00:29:38;7.90;;;5.37;;
15931;SDS011;8065;49.520;11.284;2023-12-20T00:32:08;7.50;;;5.17;;
15931;SDS011;8065;49.520;11.284;2023-12-20T00:34:36;6.50;;;5.13;;
15931;SDS011;8065;49.520;11.284;2023-12-20T00:37:04;5.07;;;4.57;;
15931;SDS011;8065;49.520;11.284;2023-12-20T00:39:32;7.50;;;4.50;;
15931;SDS011;8065;49.520;11.284;2023-12-20T00:42:01;6.37;;;4.60;;
15931;SDS011;8065;49.520;11.284;2023-12-20T00:44:29;6.03;;;4.87;;
15931;SDS011;8065;49.520;11.284;2023-12-20T00:47:00;8.53;;;5.40;;
15931;SDS011;8065;49.520;11.284;2023-12-20T00:49:28;7.03;;;5.20;;
15931;SDS011;8065;49.520;11.284;2023-12-20T00:51:57;7.73;;;5.43;;
15931;SDS011;8065;49.520;11.284;2023-12-20T00:54:25;5.87;;;4.87;;
15931;SDS011;8065;49.520;11.284;2023-12-20T00:56:54;6.57;;;5.47;;
15931;SDS011;8065;49.520;11.284;2023-12-20T00:59:22;6.27;;;5.67;;
15931;SDS011;8065;49.520;11.284;2023-12-20T01:01:50;5.93;;;5.03;;
15931;SDS011;8065;49.520;11.284;2023-12-20T01:04:21;6.10;;;5.03;;
15931;SDS011;8065;49.520;11.284;2023-12-20T01:06:49;8.27;;;4.77;;
15931;SDS011;8065;49.520;11.284;2023-12-20T01:09:16;6.63;;;5.03;;
15931;SDS011;8065;49.520;11.284;2023-12-20T01:11:44;7.53;;;4.90;;
15931;SDS011;8065;49.520;11.284;2023-12-20T01:14:13;8.07;;;5.30;;
15931;SDS011;8065;49.520;11.284;2023-12-20T01:16:41;5.30;;;4.80;;
15931;SDS011;8065;49.520;11.284;2023-12-20T01:19:10;6.07;;;4.50;;
15931;SDS011;8065;49.520;11.284;2023-12-20T01:21:41;4.73;;;4.17;;
15931;SDS011;8065;49.520;11.284;2023-12-20T01:24:09;5.47;;;4.50;;
15931;SDS011;8065;49.520;11.284;2023-12-20T01:26:37;5.87;;;4.60;;
15931;SDS011;8065;49.520;11.284;2023-12-20T01:29:05;5.37;;;4.10;;
15931;SDS011;8065;49.520;11.284;2023-12-20T01:31:34;4.10;;;3.27;;
15931;SDS011;8065;49.520;11.284;2023-12-20T01:34:02;3.50;;;3.20;;
15931;SDS011;8065;49.520;11.284;2023-12-20T01:36:30;4.93;;;2.73;;
15931;SDS011;8065;49.520;11.284;2023-12-20T01:39:01;2.70;;;2.50;;
15931;SDS011;8065;49.520;11.284;2023-12-20T01:41:29;4.60;;;2.83;;
15931;SDS011;8065;49.520;11.284;2023-12-20T01:43:57;2.83;;;2.53;;
15931;SDS011;8065;49.520;11.284;2023-12-20T01:46:26;2.93;;;2.00;;
15931;SDS011;8065;49.520;11.284;2023-12-20T01:48:54;2.57;;;2.17;;
15931;SDS011;8065;49.520;11.284;2023-12-20T01:51:23;2.13;;;1.87;;
15931;SDS011;8065;49.520;11.284;2023-12-20T01:53:53;3.03;;;2.00;;
15931;SDS011;8065;49.520;11.284;2023-12-20T01:56:25;2.03;;;1.70;;
15931;SDS011;8065;49.520;11.284;2023-12-20T01:58:54;2.17;;;1.93;;
15931;SDS011;8065;49.520;11.284;2023-12-20T02:01:23;1.77;;;1.63;;
15931;SDS011;8065;49.520;11.284;2023-12-20T02:03:53;1.60;;;1.50;;
15931;SDS011;8065;49.520;11.284;2023-12-20T02:06:22;1.40;;;1.30;;
15931;SDS011;8065;49.520;11.284;2023-12-20T02:08:53;2.13;;;1.37;;
15931;SDS011;8065;49.520;11.284;2023-12-20T02:11:21;2.33;;;1.70;;
15931;SDS011;8065;49.520;11.284;2023-12-20T02:13:52;1.40;;;1.30;;
15931;SDS011;8065;49.520;11.284;2023-12-20T02:16:21;1.50;;;1.40;;
15931;SDS011;8065;49.520;11.284;2023-12-20T02:18:50;2.00;;;1.47;;
15931;SDS011;8065;49.520;11.284;2023-12-20T02:21:18;1.40;;;1.30;;
15931;SDS011;8065;49.520;11.284;2023-12-20T02:23:50;1.40;;;1.30;;
15931;SDS011;8065;49.520;11.284;2023-12-20T02:26:18;1.67;;;1.43;;
15931;SDS011;8065;49.520;11.284;2023-12-20T02:28:47;1.50;;;1.20;;
15931;SDS011;8065;49.520;11.284;2023-12-20T02:31:15;1.13;;;1.13;;
15931;SDS011;8065;49.520;11.284;2023-12-20T02:33:43;1.30;;;1.30;;
15931;SDS011;8065;49.520;11.284;2023-12-20T02:36:12;1.63;;;1.10;;
15931;SDS011;8065;49.520;11.284;2023-12-20T02:38:40;1.13;;;1.00;;
15931;SDS011;8065;49.520;11.284;2023-12-20T02:41:11;0.90;;;0.90;;
15931;SDS011;8065;49.520;11.284;2023-12-20T02:43:41;1.03;;;1.03;;
15931;SDS011;8065;49.520;11.284;2023-12-20T02:46:10;1.37;;;1.10;;
15931;SDS011;8065;49.520;11.284;2023-12-20T02:48:39;1.10;;;1.10;;
15931;SDS011;8065;49.520;11.284;2023-12-20T02:51:07;1.23;;;1.13;;
15931;SDS011;8065;49.520;11.284;2023-12-20T02:53:35;1.27;;;1.20;;
15931;SDS011;8065;49.520;11.284;2023-12-20T02:56:04;1.00;;;1.00;;
15931;SDS011;8065;49.520;11.284;2023-12-20T02:58:35;0.80;;;0.80;;
15931;SDS011;8065;49.520;11.284;2023-12-20T03:01:03;0.90;;;0.90;;
15931;SDS011;8065;49.520;11.284;2023-12-20T03:03:32;0.90;;;0.90;;
15931;SDS011;8065;49.520;11.284;2023-12-20T03:06:00;0.87;;;0.87;;
15931;SDS011;8065;49.520;11.284;2023-12-20T03:08:28;0.80;;;0.80;;
15931;SDS011;8065;49.520;11.284;2023-12-20T03:10:56;1.00;;;1.00;;
15931;SDS011;8065;49.520;11.284;2023-12-20T03:13:26;0.70;;;0.70;;
15931;SDS011;8065;49.520;11.284;2023-12-20T03:15:57;0.60;;;0.60;;
15931;SDS011;8065;49.520;11.284;2023-12-20T03:18:26;0.67;;;0.67;;
15931;SDS011;8065;49.520;11.284;2023-12-20T03:20:54;0.70;;;0.70;;
15931;SDS011;8065;49.520;11.284;2023-12-20T03:23:23;0.70;;;0.70;;
15931;SDS011;8065;49.520;11.284;2023-12-20T03:25:51;0.50;;;0.50;;
15931;SDS011;8065;49.520;11.284;2023-12-20T03:28:19;1.10;;;0.50;;
15931;SDS011;8065;49.520;11.284;2023-12-20T03:30:48;0.50;;;0.50;;
15931;SDS011;8065;49.520;11.284;2023-12-20T03:33:19;0.60;;;0.60;;
15931;SDS011;8065;49.520;11.284;2023-12-20T03:35:47;0.50;;;0.50;;
15931;SDS011;8065;49.520;11.284;2023-12-20T03:38:15;0.60;;;0.60;;
15931;SDS011;8065;49.520;11.284;2023-12-20T03:40:44;0.70;;;0.70;;
15931;SDS011;8065;49.520;11.284;2023-12-20T03:43:12;0.70;;;0.70;;
15931;SDS011;8065;49.520;11.284;2023-12-20T03:45:41;0.70;;;0.70;;
15931;SDS011;8065;49.520;11.284;2023-12-20T03:48:10;0.77;;;0.73;;
15931;SDS011;8065;49.520;11.284;2023-12-20T03:50:40;0.60;;;0.60;;
15931;SDS011;8065;49.520;11.284;2023-12-20T03:53:09;0.80;;;0.80;;
15931;SDS011;8065;49.520;11.284;2023-12-20T03:55:37;0.80;;;0.80;;
15931;SDS011;8065;49.520;11.284;2023-12-20T03:58:05;0.70;;;0.70;;
15931;SDS011;8065;49.520;11.284;2023-12-20T04:00:33;0.80;;;0.80;;
15931;SDS011;8065;49.520;11.284;2023-12-20T04:03:02;0.70;;;0.70;;
15931;SDS011;8065;49.520;11.284;2023-12-20T04:05:30;0.63;;;0.63;;
15931;SDS011;8065;49.520;11.284;2023-12-20T04:08:02;0.70;;;0.70;;
15931;SDS011;8065;49.520;11.284;2023-12-20T04:10:30;1.37;;;0.80;;
15931;SDS011;8065;49.520;11.284;2023-12-20T04:12:59;0.70;;;0.70;;
15931;SDS011;8065;49.520;11.284;2023-12-20T04:15:27;0.63;;;0.63;;
15931;SDS011;8065;49.520;11.284;2023-12-20T04:17:55;0.60;;;0.60;;
15931;SDS011;8065;49.520;11.284;2023-12-20T04:20:23;0.60;;;0.60;;
15931;SDS011;8065;49.520;11.284;2023-12-20T04:22:52;0.70;;;0.70;;
15931;SDS011;8065;49.520;11.284;2023-12-20T04:25:23;0.60;;;0.60;;
15931;SDS011;8065;49.520;11.284;2023-12-20T04:27:51;0.60;;;0.60;;
15931;SDS011;8065;49.520;11.284;2023-12-20T04:30:19;0.70;;;0.70;;
15931;SDS011;8065;49.520;11.284;2023-12-20T04:32:47;0.77;;;0.77;;
15931;SDS011;8065;49.520;11.284;2023-12-20T04:35:15;0.70;;;0.70;;
15931;SDS011;8065;49.520;11.284;2023-12-20T04:37:41;0.60;;;0.60;;
15931;SDS011;8065;49.520;11.284;2023-12-20T04:40:09;0.60;;;0.60;;
15931;SDS011;8065;49.520;11.284;2023-12-20T04:42:41;0.80;;;0.80;;
15931;SDS011;8065;49.520;11.284;2023-12-20T04:45:09;0.70;;;0.70;;
15931;SDS011;8065;49.520;11.284;2023-12-20T04:47:38;0.70;;;0.70;;
15931;SDS011;8065;49.520;11.284;2023-12-20T04:50:07;0.57;;;0.57;;
15931;SDS011;8065;49.520;11.284;2023-12-20T04:52:38;1.30;;;0.80;;
15931;SDS011;8065;49.520;11.284;2023-12-20T04:55:06;0.80;;;0.80;;
15931;SDS011;8065;49.520;11.284;2023-12-20T04:57:35;0.70;;;0.70;;
15931;SDS011;8065;49.520;11.284;2023-12-20T05:00:06;0.70;;;0.70;;
15931;SDS011;8065;49.520;11.284;2023-12-20T05:02:36;0.80;;;0.80;;
15931;SDS011;8065;49.520;11.284;2023-12-20T05:05:04;0.80;;;0.80;;
15931;SDS011;8065;49.520;11.284;2023-12-20T05:07:33;0.80;;;0.80;;
15931;SDS011;8065;49.520;11.284;2023-12-20T05:10:02;0.80;;;0.80;;
15931;SDS011;8065;49.520;11.284;2023-12-20T05:12:33;0.90;;;0.90;;
15931;SDS011;8065;49.520;11.284;2023-12-20T05:15:01;0.90;;;0.90;;
15931;SDS011;8065;49.520;11.284;2023-12-20T05:17:32;0.80;;;0.80;;
15931;SDS011;8065;49.520;11.284;2023-12-20T05:20:00;1.50;;;0.80;;
15931;SDS011;8065;49.520;11.284;2023-12-20T05:22:29;0.80;;;0.80;;
15931;SDS011;8065;49.520;11.284;2023-12-20T05:24:58;0.87;;;0.87;;
15931;SDS011;8065;49.520;11.284;2023-12-20T05:27:26;0.87;;;0.87;;
15931;SDS011;8065;49.520;11.284;2023-12-20T05:29:54;0.90;;;0.90;;
15931;SDS011;8065;49.520;11.284;2023-12-20T05:32:23;0.80;;;0.80;;
15931;SDS011;8065;49.520;11.284;2023-12-20T05:34:54;0.87;;;0.80;;
15931;SDS011;8065;49.520;11.284;2023-12-20T05:37:22;0.83;;;0.83;;
15931;SDS011;8065;49.520;11.284;2023-12-20T05:39:50;1.13;;;1.03;;
15931;SDS011;8065;49.520;11.284;2023-12-20T05:42:19;0.90;;;0.90;;
15931;SDS011;8065;49.520;11.284;2023-12-20T05:44:47;0.80;;;0.80;;
15931;SDS011;8065;49.520;11.284;2023-12-20T05:47:15;1.00;;;1.00;;
15931;SDS011;8065;49.520;11.284;2023-12-20T05:49:43;0.80;;;0.80;;
15931;SDS011;8065;49.520;11.284;2023-12-20T05:52:15;0.80;;;0.80;;
15931;SDS011;8065;49.520;11.284;2023-12-20T05:54:43;0.70;;;0.70;;
15931;SDS011;8065;49.520;11.284;2023-12-20T05:57:11;0.90;;;0.90;;
15931;SDS011;8065;49.520;11.284;2023-12-20T05:59:40;0.70;;;0.70;;
15931;SDS011;8065;49.520;11.284;2023-12-20T06:02:08;1.00;;;1.00;;
15931;SDS011;8065;49.520;11.284;2023-12-20T06:04:36;2.30;;;1.00;;
15931;SDS011;8065;49.520;11.284;2023-12-20T06:07:04;1.10;;;1.10;;
15931;SDS011;8065;49.520;11.284;2023-12-20T06:09:35;1.30;;;1.20;;
15931;SDS011;8065;49.520;11.284;2023-12-20T06:12:04;1.13;;;1.13;;
15931;SDS011;8065;49.520;11.284;2023-12-20T06:14:33;1.03;;;1.03;;
15931;SDS011;8065;49.520;11.284;2023-12-20T06:17:01;1.37;;;1.27;;
15931;SDS011;8065;49.520;11.284;2023-12-20T06:19:30;1.17;;;1.10;;
15931;SDS011;8065;49.520;11.284;2023-12-20T06:21:58;0.97;;;0.90;;
15931;SDS011;8065;49.520;11.284;2023-12-20T06:24:26;1.37;;;1.27;;
15931;SDS011;8065;49.520;11.284;2023-12-20T06:26:57;1.00;;;1.00;;
15931;SDS011;8065;49.520;11.284;2023-12-20T06:29:26;1.40;;;1.27;;
15931;SDS011;8065;49.520;11.284;2023-12-20T06:31:54;1.20;;;1.20;;
15931;SDS011;8065;49.520;11.284;2023-12-20T06:34:22;1.43;;;1.20;;
15931;SDS011;8065;49.520;11.284;2023-12-20T06:36:50;1.23;;;1.13;;
15931;SDS011;8065;49.520;11.284;2023-12-20T06:39:19;1.43;;;1.33;;
15931;SDS011;8065;49.520;11.284;2023-12-20T06:41:47;1.60;;;1.50;;
15931;SDS011;8065;49.520;11.284;2023-12-20T06:44:18;1.67;;;1.57;;
15931;SDS011;8065;49.520;11.284;2023-12-20T06:46:46;4.80;;;4.10;;
15931;SDS011;8065;49.520;11.284;2023-12-20T06:49:14;2.93;;;2.30;;
15931;SDS011;8065;49.520;11.284;2023-12-20T06:51:43;2.13;;;1.93;;
15931;SDS011;8065;49.520;11.284;2023-12-20T06:54:12;2.40;;;2.20;;
15931;SDS011;8065;49.520;11.284;2023-12-20T06:56:40;1.40;;;1.40;;
15931;SDS011;8065;49.520;11.284;2023-12-20T06:59:08;1.70;;;1.60;;
15931;SDS011;8065;49.520;11.284;2023-12-20T07:01:39;2.20;;;2.10;;
15931;SDS011;8065;49.520;11.284;2023-12-20T07:04:08;2.10;;;2.00;;
15931;SDS011;8065;49.520;11.284;2023-12-20T07:06:36;1.60;;;1.50;;
15931;SDS011;8065;49.520;11.284;2023-12-20T07:09:05;2.37;;;1.70;;
15931;SDS011;8065;49.520;11.284;2023-12-20T07:11:33;3.87;;;1.73;;
15931;SDS011;8065;49.520;11.284;2023-12-20T07:14:02;2.43;;;2.33;;
15931;SDS011;8065;49.520;11.284;2023-12-20T07:16:30;1.70;;;1.60;;
15931;SDS011;8065;49.520;11.284;2023-12-20T07:19:01;2.10;;;2.00;;
15931;SDS011;8065;49.520;11.284;2023-12-20T07:21:29;2.63;;;2.53;;
15931;SDS011;8065;49.520;11.284;2023-12-20T07:23:57;1.80;;;1.70;;
15931;SDS011;8065;49.520;11.284;2023-12-20T07:26:26;2.03;;;1.93;;
15931;SDS011;8065;49.520;11.284;2023-12-20T07:28:54;2.37;;;2.17;;
15931;SDS011;8065;49.520;11.284;2023-12-20T07:31:23;1.77;;;1.67;;
15931;SDS011;8065;49.520;11.284;2023-12-20T07:33:52;2.20;;;2.10;;
15931;SDS011;8065;49.520;11.284;2023-12-20T07:36:23;2.10;;;1.90;;
15931;SDS011;8065;49.520;11.284;2023-12-20T07:38:51;2.00;;;1.90;;
15931;SDS011;8065;49.520;11.284;2023-12-20T07:41:19;2.60;;;2.00;;
15931;SDS011;8065;49.520;11.284;2023-12-20T07:43:48;2.37;;;1.80;;
15931;SDS011;8065;49.520;11.284;2023-12-20T07:46:18;2.83;;;2.03;;
15931;SDS011;8065;49.520;11.284;2023-12-20T07:48:49;1.90;;;1.80;;
15931;SDS011;8065;49.520;11.284;2023-12-20T07:51:17;3.30;;;2.57;;
15931;SDS011;8065;49.520;11.284;2023-12-20T07:53:48;2.30;;;2.20;;
15931;SDS011;8065;49.520;11.284;2023-12-20T07:56:17;2.50;;;2.30;;
15931;SDS011;8065;49.520;11.284;2023-12-20T07:58:46;3.00;;;2.60;;
15931;SDS011;8065;49.520;11.284;2023-12-20T08:01:15;3.73;;;2.90;;
15931;SDS011;8065;49.520;11.284;2023-12-20T08:03:44;5.53;;;2.67;;
15931;SDS011;8065;49.520;11.284;2023-12-20T08:06:12;2.67;;;2.47;;
15931;SDS011;8065;49.520;11.284;2023-12-20T08:08:42;2.50;;;2.30;;
15931;SDS011;8065;49.520;11.284;2023-12-20T08:11:13;2.43;;;2.23;;
15931;SDS011;8065;49.520;11.284;2023-12-20T08:13:41;3.43;;;2.60;;
15931;SDS011;8065;49.520;11.284;2023-12-20T08:16:09;3.43;;;2.63;;
15931;SDS011;8065;49.520;11.284;2023-12-20T08:18:38;7.80;;;2.97;;
15931;SDS011;8065;49.520;11.284;2023-12-20T08:21:07;2.57;;;2.37;;
15931;SDS011;8065;49.520;11.284;2023-12-20T08:23:35;2.97;;;2.40;;
15931;SDS011;8065;49.520;11.284;2023-12-20T08:26:04;3.47;;;2.50;;
15931;SDS011;8065;49.520;11.284;2023-12-20T08:28:36;5.60;;;2.53;;
15931;SDS011;8065;49.520;11.284;2023-12-20T08:31:04;2.60;;;2.40;;
15931;SDS011;8065;49.520;11.284;2023-12-20T08:33:33;5.17;;;2.63;;
15931;SDS011;8065;49.520;11.284;2023-12-20T08:36:01;2.97;;;2.67;;
15931;SDS011;8065;49.520;11.284;2023-12-20T08:38:30;2.70;;;2.50;;
15931;SDS011;8065;49.520;11.284;2023-12-20T08:40:58;3.50;;;2.53;;
15931;SDS011;8065;49.520;11.284;2023-12-20T08:43:28;3.97;;;2.50;;
15931;SDS011;8065;49.520;11.284;2023-12-20T08:45:56;3.33;;;2.10;;
15931;SDS011;8065;49.520;11.284;2023-12-20T08:48:25;2.43;;;2.23;;
15931;SDS011;8065;49.520;11.284;2023-12-20T08:50:53;2.37;;;2.17;;
15931;SDS011;8065;49.520;11.284;2023-12-20T08:53:21;2.77;;;2.10;;
15931;SDS011;8065;49.520;11.284;2023-12-20T08:55:50;2.53;;;2.33;;
15931;SDS011;8065;49.520;11.284;2023-12-20T08:58:18;4.97;;;2.50;;
15931;SDS011;8065;49.520;11.284;2023-12-20T09:00:46;2.43;;;2.30;;
15931;SDS011;8065;49.520;11.284;2023-12-20T09:03:17;2.30;;;2.00;;
15931;SDS011;8065;49.520;11.284;2023-12-20T09:05:46;3.33;;;2.20;;
15931;SDS011;8065;49.520;11.284;2023-12-20T09:08:14;2.70;;;2.50;;
15931;SDS011;8065;49.520;11.284;2023-12-20T09:10:42;3.93;;;2.77;;
15931;SDS011;8065;49.520;11.284;2023-12-20T09:13:11;2.60;;;2.40;;
15931;SDS011;8065;49.520;11.284;2023-12-20T09:15:39;3.03;;;2.73;;
15931;SDS011;8065;49.520;11.284;2023-12-20T09:18:10;2.43;;;2.23;;
15931;SDS011;8065;49.520;11.284;2023-12-20T09:20:41;2.67;;;2.47;;
15931;SDS011;8065;49.520;11.284;2023-12-20T09:23:10;3.07;;;2.30;;
15931;SDS011;8065;49.520;11.284;2023-12-20T09:25:38;3.50;;;2.73;;
15931;SDS011;8065;49.520;11.284;2023-12-20T09:28:06;3.20;;;2.00;;
15931;SDS011;8065;49.520;11.284;2023-12-20T09:30:34;2.00;;;1.90;;
15931;SDS011;8065;49.520;11.284;2023-12-20T09:33:05;2.97;;;1.63;;
15931;SDS011;8065;49.520;11.284;2023-12-20T09:35:34;2.60;;;1.97;;
15931;SDS011;8065;49.520;11.284;2023-12-20T09:38:05;1.43;;;1.33;;
15931;SDS011;8065;49.520;11.284;2023-12-20T09:40:33;1.60;;;1.50;;
15931;SDS011;8065;49.520;11.284;2023-12-20T09:43:06;1.70;;;1.60;;
15931;SDS011;8065;49.520;11.284;2023-12-20T09:45:38;2.80;;;1.63;;
15931;SDS011;8065;49.520;11.284;2023-12-20T09:48:08;1.50;;;1.40;;
15931;SDS011;8065;49.520;11.284;2023-12-20T09:50:39;2.10;;;1.50;;
15931;SDS011;8065;49.520;11.284;2023-12-20T09:53:11;2.00;;;1.60;;
15931;SDS011;8065;49.520;11.284;2023-12-20T09:55:43;2.37;;;1.70;;
15931;SDS011;8065;49.520;11.284;2023-12-20T09:58:11;1.83;;;1.37;;
15931;SDS011;8065;49.520;11.284;2023-12-20T10:00:40;2.97;;;1.67;;
15931;SDS011;8065;49.520;11.284;2023-12-20T10:03:08;1.40;;;1.30;;
15931;SDS011;8065;49.520;11.284;2023-12-20T10:05:39;1.93;;;1.30;;
15931;SDS011;8065;49.520;11.284;2023-12-20T10:08:13;1.50;;;1.40;;
15931;SDS011;8065;49.520;11.284;2023-12-20T10:10:41;4.00;;;1.50;;
15931;SDS011;8065;49.520;11.284;2023-12-20T10:13:12;4.50;;;1.80;;
15931;SDS011;8065;49.520;11.284;2023-12-20T10:15:41;7.57;;;1.70;;
15931;SDS011;8065;49.520;11.284;2023-12-20T10:18:09;3.73;;;1.60;;
15931;SDS011;8065;49.520;11.284;2023-12-20T10:20:40;1.50;;;1.40;;
15931;SDS011;8065;49.520;11.284;2023-12-20T10:23:09;2.43;;;1.40;;
15931;SDS011;8065;49.520;11.284;2023-12-20T10:25:41;1.90;;;1.43;;
15931;SDS011;8065;49.520;11.284;2023-12-20T10:28:10;3.23;;;1.63;;
15931;SDS011;8065;49.520;11.284;2023-12-20T10:33:53;4.27;;;1.43;;
15931;SDS011;8065;49.520;11.284;2023-12-20T10:36:22;3.43;;;1.70;;
15931;SDS011;8065;49.520;11.284;2023-12-20T10:38:52;3.53;;;1.63;;
15931;SDS011;8065;49.520;11.284;2023-12-20T10:41:24;2.47;;;1.40;;
15931;SDS011;8065;49.520;11.284;2023-12-20T10:43:55;3.63;;;1.70;;
15931;SDS011;8065;49.520;11.284;2023-12-20T10:46:26;5.93;;;2.70;;
15931;SDS011;8065;49.520;11.284;2023-12-20T10:48:55;5.80;;;2.17;;
15931;SDS011;8065;49.520;11.284;2023-12-20T10:51:21;4.30;;;1.43;;
15931;SDS011;8065;49.520;11.284;2023-12-20T10:53:52;2.67;;;1.20;;
15931;SDS011;8065;49.520;11.284;2023-12-20T10:56:24;5.90;;;1.70;;
15931;SDS011;8065;49.520;11.284;2023-12-20T10:58:53;4.37;;;1.63;;
15931;SDS011;8065;49.520;11.284;2023-12-20T11:01:23;3.83;;;1.73;;
15931;SDS011;8065;49.520;11.284;2023-12-20T11:03:52;3.40;;;1.47;;
15931;SDS011;8065;49.520;11.284;2023-12-20T11:06:26;5.20;;;1.47;;
15931;SDS011;8065;49.520;11.284;2023-12-20T11:09:04;2.73;;;1.50;;
15931;SDS011;8065;49.520;11.284;2023-12-20T11:11:46;4.60;;;1.60;;
15931;SDS011;8065;49.520;11.284;2023-12-20T11:14:25;4.87;;;1.30;;
15931;SDS011;8065;49.520;11.284;2023-12-20T11:17:06;1.83;;;1.30;;
15931;SDS011;8065;49.520;11.284;2023-12-20T11:19:36;4.73;;;1.50;;
15931;SDS011;8065;49.520;11.284;2023-12-20T11:22:05;4.73;;;1.50;;
15931;SDS011;8065;49.520;11.284;2023-12-20T11:24:33;2.33;;;1.43;;
15931;SDS011;8065;49.520;11.284;2023-12-20T11:27:05;2.53;;;1.33;;
15931;SDS011;8065;49.520;11.284;2023-12-20T11:29:34;5.07;;;1.63;;
15931;SDS011;8065;49.520;11.284;2023-12-20T11:32:04;5.67;;;2.03;;
15931;SDS011;8065;49.520;11.284;2023-12-20T11:34:58;3.60;;;1.50;;
15931;SDS011;8065;49.520;11.284;2023-12-20T11:37:31;4.40;;;1.40;;
15931;SDS011;8065;49.520;11.284;2023-12-20T11:40:05;5.77;;;1.53;;
15931;SDS011;8065;49.520;11.284;2023-12-20T11:42:40;4.13;;;1.47;;
15931;SDS011;8065;49.520;11.284;2023-12-20T11:45:09;1.97;;;1.20;;
15931;SDS011;8065;49.520;11.284;2023-12-20T11:47:40;4.33;;;1.47;;
15931;SDS011;8065;49.520;11.284;2023-12-20T11:50:08;5.40;;;1.70;;
15931;SDS011;8065;49.520;11.284;2023-12-20T11:52:36;3.83;;;1.50;;
15931;SDS011;8065;49.520;11.284;2023-12-20T11:55:05;3.30;;;1.43;;
15931;SDS011;8065;49.520;11.284;2023-12-20T11:57:34;6.87;;;1.53;;
15931;SDS011;8065;49.520;11.284;2023-12-20T12:00:06;2.97;;;1.40;;
15931;SDS011;8065;49.520;11.284;2023-12-20T12:02:35;3.53;;;1.40;;
15931;SDS011;8065;49.520;11.284;2023-12-20T12:05:04;4.33;;;1.50;;
15931;SDS011;8065;49.520;11.284;2023-12-20T12:07:33;5.37;;;1.67;;
15931;SDS011;8065;49.520;11.284;2023-12-20T12:10:02;3.87;;;1.60;;
15931;SDS011;8065;49.520;11.284;2023-12-20T12:12:31;6.10;;;1.83;;
15931;SDS011;8065;49.520;11.284;2023-12-20T12:15:00;5.00;;;1.30;;
15931;SDS011;8065;49.520;11.284;2023-12-20T12:17:31;3.93;;;1.83;;
15931;SDS011;8065;49.520;11.284;2023-12-20T12:20:03;4.67;;;1.60;;
15931;SDS011;8065;49.520;11.284;2023-12-20T12:22:33;3.17;;;1.30;;
15931;SDS011;8065;49.520;11.284;2023-12-20T12:25:09;3.10;;;1.57;;
15931;SDS011;8065;49.520;11.284;2023-12-20T12:27:39;2.97;;;1.53;;
15931;SDS011;8065;49.520;11.284;2023-12-20T12:30:09;3.10;;;1.60;;
15931;SDS011;8065;49.520;11.284;2023-12-20T12:32:41;2.10;;;1.53;;
15931;SDS011;8065;49.520;11.284;2023-12-20T12:35:09;3.77;;;1.43;;
15931;SDS011;8065;49.520;11.284;2023-12-20T12:37:38;4.10;;;1.43;;
15931;SDS011;8065;49.520;11.284;2023-12-20T12:40:09;4.63;;;1.73;;
15931;SDS011;8065;49.520;11.284;2023-12-20T12:42:38;6.17;;;2.00;;
15931;SDS011;8065;49.520;11.284;2023-12-20T12:45:07;3.43;;;1.60;;
15931;SDS011;8065;49.520;11.284;2023-12-20T12:47:36;2.33;;;1.80;;
15931;SDS011;8065;49.520;11.284;2023-12-20T12:50:08;3.93;;;1.70;;
15931;SDS011;8065;49.520;11.284;2023-12-20T12:52:37;7.83;;;1.80;;
15931;SDS011;8065;49.520;11.284;2023-12-20T12:55:05;4.43;;;1.60;;
15931;SDS011;8065;49.520;11.284;2023-12-20T12:57:34;4.37;;;1.80;;
15931;SDS011;8065;49.520;11.284;2023-12-20T13:00:03;4.90;;;2.17;;
15931;SDS011;8065;49.520;11.284;2023-12-20T13:02:33;1.87;;;1.47;;
15931;SDS011;8065;49.520;11.284;2023-12-20T13:05:03;4.33;;;1.80;;
15931;SDS011;8065;49.520;11.284;2023-12-20T13:07:34;2.83;;;1.43;;
15931;SDS011;8065;49.520;11.284;2023-12-20T13:10:04;4.90;;;1.80;;
15931;SDS011;8065;49.520;11.284;2023-12-20T13:12:33;3.10;;;1.60;;
15931;SDS011;8065;49.520;11.284;2023-12-20T13:15:02;3.30;;;1.90;;
15931;SDS011;8065;49.520;11.284;2023-12-20T13:17:31;5.70;;;2.20;;
15931;SDS011;8065;49.520;11.284;2023-12-20T13:19:59;5.10;;;1.97;;
15931;SDS011;8065;49.520;11.284;2023-12-20T13:22:28;4.90;;;1.83;;
15931;SDS011;8065;49.520;11.284;2023-12-20T13:24:58;4.43;;;1.63;;
15931;SDS011;8065;49.520;11.284;2023-12-20T13:27:28;3.70;;;1.43;;
15931;SDS011;8065;49.520;11.284;2023-12-20T13:29:56;3.60;;;1.77;;
15931;SDS011;8065;49.520;11.284;2023-12-20T13:32:24;4.53;;;1.57;;
15931;SDS011;8065;49.520;11.284;2023-12-20T13:34:50;2.77;;;1.63;;
15931;SDS011;8065;49.520;11.284;2023-12-20T13:37:18;3.87;;;2.00;;
15931;SDS011;8065;49.520;11.284;2023-12-20T13:39:46;5.40;;;1.63;;
15931;SDS011;8065;49.520;11.284;2023-12-20T13:42:17;2.20;;;1.40;;
15931;SDS011;8065;49.520;11.284;2023-12-20T13:44:46;4.43;;;1.93;;
15931;SDS011;8065;49.520;11.284;2023-12-20T13:47:14;2.40;;;1.27;;
15931;SDS011;8065;49.520;11.284;2023-12-20T13:49:42;4.20;;;1.60;;
15931;SDS011;8065;49.520;11.284;2023-12-20T13:52:11;2.63;;;1.30;;
15931;SDS011;8065;49.520;11.284;2023-12-20T13:54:39;2.03;;;1.40;;
15931;SDS011;8065;49.520;11.284;2023-12-20T13:57:08;3.60;;;1.50;;
15931;SDS011;8065;49.520;11.284;2023-12-20T13:59:38;2.97;;;1.50;;
15931;SDS011;8065;49.520;11.284;2023-12-20T14:02:07;3.57;;;1.50;;
15931;SDS011;8065;49.520;11.284;2023-12-20T14:04:35;2.87;;;1.50;;
15931;SDS011;8065;49.520;11.284;2023-12-20T14:07:04;4.87;;;1.90;;
15931;SDS011;8065;49.520;11.284;2023-12-20T14:09:32;6.67;;;1.60;;
15931;SDS011;8065;49.520;11.284;2023-12-20T14:12:00;4.00;;;1.30;;
15931;SDS011;8065;49.520;11.284;2023-12-20T14:14:29;3.67;;;1.40;;
15931;SDS011;8065;49.520;11.284;2023-12-20T14:17:00;3.77;;;1.60;;
15931;SDS011;8065;49.520;11.284;2023-12-20T14:19:28;3.87;;;1.50;;
15931;SDS011;8065;49.520;11.284;2023-12-20T14:21:57;3.33;;;1.47;;
15931;SDS011;8065;49.520;11.284;2023-12-20T14:24:26;4.07;;;1.73;;
15931;SDS011;8065;49.520;11.284;2023-12-20T14:26:54;3.70;;;1.33;;
15931;SDS011;8065;49.520;11.284;2023-12-20T14:29:23;8.00;;;1.73;;
15931;SDS011;8065;49.520;11.284;2023-12-20T14:31:52;4.87;;;1.60;;
15931;SDS011;8065;49.520;11.284;2023-12-20T14:34:23;4.13;;;1.50;;
15931;SDS011;8065;49.520;11.284;2023-12-20T14:36:51;4.17;;;1.83;;
15931;SDS011;8065;49.520;11.284;2023-12-20T14:39:20;2.23;;;1.40;;
15931;SDS011;8065;49.520;11.284;2023-12-20T14:41:49;4.40;;;1.70;;
15931;SDS011;8065;49.520;11.284;2023-12-20T14:44:17;2.67;;;1.50;;
15931;SDS011;8065;49.520;11.284;2023-12-20T14:46:46;2.23;;;1.27;;
15931;SDS011;8065;49.520;11.284;2023-12-20T14:49:15;2.70;;;1.70;;
15931;SDS011;8065;49.520;11.284;2023-12-20T14:51:46;1.93;;;1.20;;
15931;SDS011;8065;49.520;11.284;2023-12-20T14:54:14;3.93;;;1.63;;
15931;SDS011;8065;49.520;11.284;2023-12-20T14:56:46;3.83;;;1.70;;
15931;SDS011;8065;49.520;11.284;2023-12-20T14:59:14;4.33;;;1.40;;
15931;SDS011;8065;49.520;11.284;2023-12-20T15:01:43;2.70;;;1.20;;
15931;SDS011;8065;49.520;11.284;2023-12-20T15:04:11;3.47;;;1.50;;